createdAt,value
2018-07-16T00:01:05.242Z,19.80
2018-07-16T00:03:34.374Z,19.61
2018-07-16T00:06:03.428Z,19.59
2018-07-16T00:08:32.543Z,19.60
2018-07-16T00:11:01.486Z,19.58
2018-07-16T00:13:30.705Z,19.71
2018-07-16T00:15:59.670Z,19.63
2018-07-16T00:18:28.741Z,19.59
2018-07-16T00:20:57.701Z,19.75
2018-07-16T00:23:27.481Z,19.61
2018-07-16T00:25:56.727Z,19.57
2018-07-16T00:28:26.287Z,19.54
2018-07-16T00:30:55.430Z,19.57
2018-07-16T00:33:24.363Z,19.44
2018-07-16T00:35:53.320Z,19.44
2018-07-16T00:38:22.497Z,19.62
2018-07-16T00:40:52.415Z,19.57
2018-07-16T00:43:21.721Z,19.58
2018-07-16T00:45:50.964Z,19.50
2018-07-16T00:48:19.953Z,19.54
2018-07-16T00:50:48.929Z,19.54
2018-07-16T00:53:18.814Z,19.32
2018-07-16T00:55:47.932Z,19.25
2018-07-16T00:58:17.000Z,19.30
2018-07-16T01:00:46.600Z,19.38
2018-07-16T01:03:15.828Z,19.26
2018-07-16T01:05:44.806Z,19.15
2018-07-16T01:08:13.739Z,18.74
2018-07-16T01:10:42.842Z,18.86
2018-07-16T01:13:12.054Z,18.75
2018-07-16T01:15:41.187Z,18.80
2018-07-16T01:18:10.292Z,18.76
2018-07-16T01:20:39.584Z,18.74
2018-07-16T01:23:08.568Z,18.76
2018-07-16T01:25:37.676Z,18.77
2018-07-16T01:28:06.695Z,18.68
2018-07-16T01:30:35.706Z,18.75
2018-07-16T01:33:04.711Z,18.65
2018-07-16T01:35:33.746Z,18.23
2018-07-16T01:38:02.730Z,17.75
2018-07-16T01:40:32.365Z,18.08
2018-07-16T01:43:01.346Z,18.33
2018-07-16T01:45:30.979Z,18.32
2018-07-16T01:48:00.242Z,18.43
2018-07-16T01:50:29.342Z,18.23
2018-07-16T01:52:58.339Z,18.26
2018-07-16T01:55:27.627Z,18.39
2018-07-16T01:57:56.868Z,18.21
2018-07-16T02:00:26.237Z,17.99
2018-07-16T02:02:55.755Z,17.76
2018-07-16T02:05:25.184Z,17.92
2018-07-16T02:07:54.461Z,18.06
2018-07-16T02:10:23.840Z,18.06
2018-07-16T02:12:53.175Z,17.94
2018-07-16T02:15:22.446Z,17.80
2018-07-16T02:17:51.712Z,17.89
2018-07-16T02:20:21.148Z,17.86
2018-07-16T02:22:50.224Z,17.80
2018-07-16T02:25:19.948Z,17.89
2018-07-16T02:27:49.015Z,17.75
2018-07-16T02:30:18.527Z,17.79
2018-07-16T02:32:47.615Z,17.59
2018-07-16T02:35:16.747Z,17.47
2018-07-16T02:37:46.037Z,17.44
2018-07-16T02:40:15.713Z,17.65
2018-07-16T02:42:46.205Z,17.63
2018-07-16T02:45:15.216Z,17.58
2018-07-16T02:47:44.504Z,17.49
2018-07-16T02:50:13.764Z,17.40
2018-07-16T02:52:43.092Z,17.33
2018-07-16T02:55:12.454Z,17.43
2018-07-16T02:57:41.597Z,17.13
2018-07-16T03:00:10.783Z,17.25
2018-07-16T03:02:40.600Z,17.24
2018-07-16T03:05:15.874Z,17.33
2018-07-16T03:07:45.995Z,17.35
2018-07-16T03:10:15.663Z,17.33
2018-07-16T03:12:45.478Z,17.42
2018-07-16T03:15:15.291Z,17.25
2018-07-16T03:17:44.297Z,17.38
2018-07-16T03:20:13.503Z,17.24
2018-07-16T03:22:43.086Z,17.22
2018-07-16T03:25:12.359Z,17.39
2018-07-16T03:27:41.894Z,17.27
2018-07-16T03:30:11.150Z,17.35
2018-07-16T03:32:40.835Z,17.31
2018-07-16T03:35:09.798Z,17.27
2018-07-16T03:37:39.125Z,17.36
2018-07-16T03:40:08.634Z,17.41
2018-07-16T03:42:37.834Z,17.25
2018-07-16T03:45:07.709Z,17.28
2018-07-16T03:47:36.782Z,17.17
2018-07-16T03:50:09.646Z,16.88
2018-07-16T03:52:38.761Z,16.67
2018-07-16T03:55:08.334Z,16.38
2018-07-16T03:57:37.308Z,16.67
2018-07-16T04:00:08.313Z,16.64
2018-07-16T04:02:37.396Z,16.90
2018-07-16T04:05:08.499Z,16.78
2018-07-16T04:07:37.590Z,16.98
2018-07-16T04:10:09.595Z,17.26
2018-07-16T04:12:39.512Z,17.12
2018-07-16T04:15:08.568Z,17.16
2018-07-16T04:17:38.107Z,17.33
2018-07-16T04:20:08.300Z,16.74
2018-07-16T04:22:37.406Z,16.80
2018-07-16T04:25:08.362Z,17.15
2018-07-16T04:27:37.430Z,16.98
2018-07-16T04:30:08.373Z,17.24
2018-07-16T04:32:37.701Z,17.20
2018-07-16T04:35:08.234Z,17.19
2018-07-16T04:37:37.696Z,17.31
2018-07-16T04:40:08.612Z,17.25
2018-07-16T04:42:38.986Z,17.43
2018-07-16T04:45:08.814Z,17.73
2018-07-16T04:47:38.034Z,17.82
2018-07-16T04:50:08.575Z,17.58
2018-07-16T04:52:38.171Z,17.88
2018-07-16T04:55:09.006Z,18.40
2018-07-16T04:57:38.263Z,18.59
2018-07-16T05:00:08.542Z,18.50
2018-07-16T05:02:37.494Z,18.83
2018-07-16T05:05:08.095Z,18.91
2018-07-16T05:07:37.502Z,19.14
2018-07-16T05:10:08.855Z,19.12
2018-07-16T05:12:38.143Z,19.26
2018-07-16T05:15:08.311Z,19.04
2018-07-16T05:17:37.564Z,19.02
2018-07-16T05:20:08.405Z,19.13
2018-07-16T05:22:37.352Z,19.16
2018-07-16T05:25:08.251Z,19.15
2018-07-16T05:27:37.336Z,19.06
2018-07-16T05:30:08.087Z,19.06
2018-07-16T05:32:37.892Z,19.12
2018-07-16T05:35:08.154Z,19.26
2018-07-16T05:37:38.019Z,19.18
2018-07-16T05:40:07.699Z,19.49
2018-07-16T05:42:36.923Z,19.49
2018-07-16T05:45:08.303Z,19.50
2018-07-16T05:47:37.261Z,19.47
2018-07-16T05:50:07.897Z,19.11
2018-07-16T05:52:36.969Z,18.99
2018-07-16T05:55:07.602Z,19.63
2018-07-16T05:57:36.702Z,19.86
2018-07-16T06:00:09.213Z,19.87
2018-07-16T06:02:38.392Z,19.89
2018-07-16T06:05:07.877Z,20.01
2018-07-16T06:07:36.852Z,20.05
2018-07-16T06:10:08.014Z,19.90
2018-07-16T06:12:36.979Z,20.05
2018-07-16T06:15:09.672Z,19.94
2018-07-16T06:17:38.783Z,20.15
2018-07-16T06:20:09.827Z,20.11
2018-07-16T06:22:39.751Z,20.28
2018-07-16T06:25:09.554Z,20.53
2018-07-16T06:27:39.293Z,20.68
2018-07-16T06:30:08.466Z,20.48
2018-07-16T06:32:37.555Z,20.11
2018-07-16T06:35:07.053Z,20.19
2018-07-16T06:37:36.189Z,20.29
2018-07-16T06:40:08.422Z,20.27
2018-07-16T06:42:37.614Z,20.35
2018-07-16T06:45:06.918Z,20.36
2018-07-16T06:47:36.247Z,20.54
2018-07-16T06:50:07.431Z,20.97
2018-07-16T06:52:37.196Z,21.08
2018-07-16T06:55:07.955Z,21.18
2018-07-16T06:57:37.239Z,21.07
2018-07-16T07:00:07.805Z,21.25
2018-07-16T07:02:37.031Z,21.46
2018-07-16T07:05:07.470Z,21.90
2018-07-16T07:07:36.414Z,22.54
2018-07-16T07:10:08.805Z,22.62
2018-07-16T07:12:37.828Z,22.79
2018-07-16T07:15:06.975Z,23.16
2018-07-16T07:17:36.433Z,23.13
2018-07-16T07:20:07.487Z,23.46
2018-07-16T07:22:36.663Z,24.93
2018-07-16T07:25:07.309Z,26.66
2018-07-16T07:27:36.375Z,26.73
2018-07-16T07:30:08.763Z,27.48
2018-07-16T07:32:38.089Z,29.25
2018-07-16T07:35:07.408Z,28.55
2018-07-16T07:37:36.668Z,28.04
2018-07-16T07:40:06.873Z,26.54
2018-07-16T07:42:35.807Z,26.36
2018-07-16T07:45:08.617Z,25.06
2018-07-16T07:47:37.774Z,24.01
2018-07-16T07:50:06.835Z,23.55
2018-07-16T07:52:36.068Z,23.35
2018-07-16T07:55:07.895Z,24.08
2018-07-16T07:57:36.676Z,23.97
2018-07-16T08:00:07.135Z,23.96
2018-07-16T08:02:36.445Z,25.60
2018-07-16T08:05:08.790Z,26.28
2018-07-16T08:07:37.963Z,27.94
2018-07-16T08:10:06.995Z,28.31
2018-07-16T08:12:36.242Z,27.24
2018-07-16T08:15:08.912Z,26.03
2018-07-16T08:17:38.954Z,27.48
2018-07-16T08:20:08.594Z,28.34
2018-07-16T08:22:37.851Z,27.96
2018-07-16T08:25:06.819Z,27.06
2018-07-16T08:27:36.065Z,26.41
2018-07-16T08:30:07.320Z,25.60
2018-07-16T08:32:36.957Z,25.03
2018-07-16T08:35:07.874Z,25.04
2018-07-16T08:37:36.865Z,25.16
2018-07-16T08:40:08.319Z,24.75
2018-07-16T08:42:37.527Z,25.36
2018-07-16T08:45:07.617Z,27.45
2018-07-16T08:47:37.506Z,28.89
2018-07-16T08:50:07.027Z,28.64
2018-07-16T08:52:36.140Z,27.48
2018-07-16T08:55:07.310Z,27.28
2018-07-16T08:57:36.359Z,29.72
2018-07-16T09:00:09.708Z,30.27
2018-07-16T09:02:40.067Z,28.77
2018-07-16T09:05:09.988Z,29.96
2018-07-16T09:07:38.999Z,29.85
2018-07-16T09:10:08.618Z,30.50
2018-07-16T09:12:37.775Z,29.73
2018-07-16T09:15:07.221Z,29.91
2018-07-16T09:17:36.275Z,27.67
2018-07-16T09:20:09.111Z,27.21
2018-07-16T09:22:38.390Z,28.96
2018-07-16T09:25:08.343Z,29.96
2018-07-16T09:27:37.562Z,31.25
2018-07-16T09:30:07.341Z,32.19
2018-07-16T09:32:36.818Z,33.90
2018-07-16T09:35:07.730Z,31.39
2018-07-16T09:37:36.822Z,33.12
2018-07-16T09:40:08.008Z,32.77
2018-07-16T09:42:37.034Z,33.60
2018-07-16T09:45:08.456Z,33.51
2018-07-16T09:47:37.583Z,33.30
2018-07-16T09:50:07.480Z,33.17
2018-07-16T09:52:36.628Z,32.40
2018-07-16T09:55:07.406Z,31.90
2018-07-16T09:57:36.341Z,30.70
2018-07-16T10:00:08.496Z,33.27
2018-07-16T10:02:37.582Z,34.29
2018-07-16T10:05:07.726Z,36.00
2018-07-16T10:07:36.654Z,37.21
2018-07-16T10:10:07.818Z,34.01
2018-07-16T10:12:36.935Z,36.01
2018-07-16T10:15:07.395Z,35.99
2018-07-16T10:17:36.587Z,38.06
2018-07-16T10:20:07.590Z,37.37
2018-07-16T10:22:36.786Z,37.21
2018-07-16T10:25:08.790Z,37.82
2018-07-16T10:27:37.966Z,37.95
2018-07-16T10:30:07.700Z,37.62
2018-07-16T10:32:36.637Z,32.10
2018-07-16T10:35:07.556Z,30.87
2018-07-16T10:37:36.623Z,31.44
2018-07-16T10:40:07.852Z,31.78
2018-07-16T10:42:37.632Z,34.15
2018-07-16T10:45:08.458Z,33.18
2018-07-16T10:47:38.426Z,34.13
2018-07-16T10:50:07.553Z,36.51
2018-07-16T10:52:37.235Z,37.17
2018-07-16T10:55:08.362Z,34.10
2018-07-16T10:57:37.562Z,31.79
2018-07-16T11:00:07.115Z,32.92
2018-07-16T11:02:36.783Z,33.62
2018-07-16T11:05:08.185Z,35.17
2018-07-16T11:07:37.408Z,35.04
2018-07-16T11:10:07.758Z,33.21
2018-07-16T11:12:36.822Z,34.29
2018-07-16T11:15:07.870Z,33.22
2018-07-16T11:17:37.906Z,32.98
2018-07-16T11:20:08.896Z,31.84
2018-07-16T11:22:39.724Z,32.50
2018-07-16T11:25:09.484Z,32.13
2018-07-16T11:27:38.878Z,32.14
2018-07-16T11:30:08.838Z,32.03
2018-07-16T11:32:37.926Z,31.06
2018-07-16T11:35:07.207Z,31.67
2018-07-16T11:37:36.308Z,29.81
2018-07-16T11:40:09.103Z,30.72
2018-07-16T11:42:38.423Z,30.88
2018-07-16T11:45:07.772Z,30.24
2018-07-16T11:47:36.950Z,30.76
2018-07-16T11:50:07.729Z,30.93
2018-07-16T11:52:36.752Z,30.90
2018-07-16T11:55:07.758Z,30.54
2018-07-16T11:57:36.959Z,30.67
2018-07-16T12:00:07.853Z,30.52
2018-07-16T12:02:36.818Z,30.16
2018-07-16T12:05:08.054Z,30.92
2018-07-16T12:07:36.935Z,30.75
2018-07-16T12:10:07.730Z,30.85
2018-07-16T12:12:36.743Z,30.26
2018-07-16T12:15:07.526Z,30.41
2018-07-16T12:17:36.797Z,31.04
2018-07-16T12:20:07.595Z,30.51
2018-07-16T12:22:37.359Z,29.83
2018-07-16T12:25:07.619Z,30.57
2018-07-16T12:27:36.740Z,30.72
2018-07-16T12:30:07.236Z,30.96
2018-07-16T12:32:36.576Z,31.45
2018-07-16T12:35:07.898Z,31.05
2018-07-16T12:37:37.048Z,30.78
2018-07-16T12:40:08.030Z,31.19
2018-07-16T12:42:36.994Z,31.44
2018-07-16T12:45:08.118Z,31.16
2018-07-16T12:47:37.039Z,31.25
2018-07-16T12:50:07.702Z,31.50
2018-07-16T12:52:36.811Z,31.69
2018-07-16T12:55:07.792Z,31.74
2018-07-16T12:57:37.084Z,31.78
2018-07-16T13:00:07.752Z,31.45
2018-07-16T13:02:36.976Z,31.60
2018-07-16T13:05:07.220Z,31.67
2018-07-16T13:07:36.227Z,31.54
2018-07-16T13:10:09.195Z,31.43
2018-07-16T13:12:38.687Z,31.55
2018-07-16T13:15:07.786Z,31.79
2018-07-16T13:17:37.547Z,31.93
2018-07-16T13:20:08.150Z,31.86
2018-07-16T13:22:37.644Z,31.69
2018-07-16T13:25:08.715Z,32.02
2018-07-16T13:27:38.011Z,31.63
2018-07-16T13:30:07.743Z,31.69
2018-07-16T13:32:37.229Z,31.55
2018-07-16T13:35:08.152Z,31.68
2018-07-16T13:37:37.238Z,31.69
2018-07-16T13:40:07.158Z,31.45
2018-07-16T13:42:36.308Z,31.16
2018-07-16T13:45:08.847Z,31.42
2018-07-16T13:47:38.350Z,31.34
2018-07-16T13:50:07.566Z,31.28
2018-07-16T13:52:36.651Z,31.21
2018-07-16T13:55:07.808Z,31.69
2018-07-16T13:57:37.084Z,31.84
2018-07-16T14:00:08.258Z,31.10
2018-07-16T14:02:37.594Z,30.41
2018-07-16T14:05:08.160Z,31.04
2018-07-16T14:07:37.607Z,30.91
2018-07-16T14:10:07.853Z,31.32
2018-07-16T14:12:37.042Z,31.57
2018-07-16T14:15:07.156Z,31.49
2018-07-16T14:17:37.032Z,31.58
2018-07-16T14:20:07.206Z,31.51
2018-07-16T14:22:36.163Z,31.12
2018-07-16T14:25:07.289Z,31.08
2018-07-16T14:27:36.247Z,31.49
2018-07-16T14:30:07.917Z,31.21
2018-07-16T14:32:36.955Z,31.00
2018-07-16T14:35:07.987Z,31.24
2018-07-16T14:37:37.167Z,31.37
2018-07-16T14:40:08.572Z,31.20
2018-07-16T14:42:37.666Z,31.33
2018-07-16T14:45:07.815Z,31.39
2018-07-16T14:47:36.836Z,31.48
2018-07-16T14:50:09.318Z,31.35
2018-07-16T14:52:38.730Z,31.56
2018-07-16T14:55:09.513Z,31.17
2018-07-16T14:57:39.352Z,31.31
2018-07-16T15:00:08.473Z,31.48
2018-07-16T15:02:37.442Z,31.48
2018-07-16T15:05:07.612Z,31.61
2018-07-16T15:07:37.499Z,31.47
2018-07-16T15:10:07.668Z,31.35
2018-07-16T15:12:37.171Z,31.52
2018-07-16T15:15:07.251Z,31.42
2018-07-16T15:17:36.247Z,31.56
2018-07-16T15:20:08.614Z,31.66
2018-07-16T15:22:37.905Z,31.67
2018-07-16T15:25:08.310Z,31.55
2018-07-16T15:27:37.816Z,31.52
2018-07-16T15:30:12.329Z,31.28
2018-07-16T15:32:41.855Z,31.58
2018-07-16T15:35:10.945Z,31.63
2018-07-16T15:37:40.244Z,31.65
2018-07-16T15:40:09.206Z,31.58
2018-07-16T15:42:38.287Z,31.54
2018-07-16T15:45:07.427Z,31.20
2018-07-16T15:47:36.391Z,31.07
2018-07-16T15:50:08.669Z,31.08
2018-07-16T15:52:37.904Z,30.80
2018-07-16T15:55:07.706Z,30.70
2018-07-16T15:57:36.793Z,30.34
2018-07-16T16:00:09.127Z,30.25
2018-07-16T16:02:38.368Z,29.95
2018-07-16T16:05:07.701Z,30.04
2018-07-16T16:07:36.751Z,30.29
2018-07-16T16:10:08.567Z,30.35
2018-07-16T16:12:37.559Z,30.46
2018-07-16T16:15:08.429Z,30.66
2018-07-16T16:17:37.666Z,30.81
2018-07-16T16:20:07.896Z,30.77
2018-07-16T16:22:36.939Z,30.79
2018-07-16T16:25:07.894Z,30.80
2018-07-16T16:27:37.455Z,30.83
2018-07-16T16:30:08.486Z,30.69
2018-07-16T16:32:37.696Z,30.36
2018-07-16T16:35:07.858Z,30.44
2018-07-16T16:37:36.984Z,30.21
2018-07-16T16:40:07.951Z,30.38
2018-07-16T16:42:37.980Z,30.37
2018-07-16T16:45:07.668Z,30.31
2018-07-16T16:47:36.625Z,30.28
2018-07-16T16:50:09.212Z,30.21
2018-07-16T16:52:38.367Z,30.48
2018-07-16T16:55:07.514Z,30.33
2018-07-16T16:57:37.007Z,30.26
2018-07-16T17:00:08.156Z,30.58
2018-07-16T17:02:37.565Z,30.47
2018-07-16T17:05:08.416Z,30.34
2018-07-16T17:07:42.277Z,30.24
2018-07-16T17:10:11.504Z,30.10
2018-07-16T17:12:40.472Z,30.02
2018-07-16T17:15:09.783Z,30.11
2018-07-16T17:17:39.502Z,30.07
2018-07-16T17:20:09.264Z,29.92
2018-07-16T17:22:38.526Z,29.94
2018-07-16T17:25:07.826Z,29.98
2018-07-16T17:27:37.535Z,29.93
2018-07-16T17:30:08.226Z,30.01
2018-07-16T17:32:37.315Z,29.93
2018-07-16T17:35:08.418Z,29.92
2018-07-16T17:37:37.672Z,29.89
2018-07-16T17:40:13.607Z,29.77
2018-07-16T17:42:42.674Z,29.56
2018-07-16T17:45:12.572Z,29.49
2018-07-16T17:47:41.837Z,29.36
2018-07-16T17:50:11.257Z,29.35
2018-07-16T17:52:40.538Z,29.59
2018-07-16T17:55:09.532Z,29.40
2018-07-16T17:57:38.663Z,29.38
2018-07-16T18:00:08.139Z,29.46
2018-07-16T18:02:37.321Z,29.27
2018-07-16T18:05:08.087Z,29.49
2018-07-16T18:07:37.224Z,29.38
2018-07-16T18:10:08.645Z,29.43
2018-07-16T18:12:37.704Z,29.24
2018-07-16T18:15:08.467Z,29.28
2018-07-16T18:17:38.212Z,29.14
2018-07-16T18:20:07.684Z,29.03
2018-07-16T18:22:37.421Z,29.15
2018-07-16T18:25:07.846Z,29.06
2018-07-16T18:27:37.113Z,29.08
2018-07-16T18:30:08.090Z,29.01
2018-07-16T18:32:38.311Z,28.98
2018-07-16T18:35:07.603Z,28.91
2018-07-16T18:37:36.883Z,28.75
2018-07-16T18:40:07.763Z,28.82
2018-07-16T18:42:41.144Z,28.63
2018-07-16T18:45:10.377Z,28.76
2018-07-16T18:47:40.202Z,28.67
2018-07-16T18:50:10.268Z,28.63
2018-07-16T18:52:39.230Z,28.53
2018-07-16T18:55:08.429Z,28.47
2018-07-16T18:57:38.213Z,28.35
2018-07-16T19:00:08.817Z,28.35
2018-07-16T19:02:37.889Z,28.39
2018-07-16T19:05:08.304Z,28.30
2018-07-16T19:07:38.340Z,28.34
2018-07-16T19:10:08.101Z,28.20
2018-07-16T19:12:37.315Z,28.15
2018-07-16T19:15:13.910Z,28.18
2018-07-16T19:17:43.283Z,28.05
2018-07-16T19:20:12.795Z,28.09
2018-07-16T19:22:41.878Z,28.03
2018-07-16T19:25:11.197Z,27.94
2018-07-16T19:27:41.536Z,27.79
2018-07-16T19:30:10.667Z,27.75
2018-07-16T19:32:39.924Z,27.70
2018-07-16T19:35:09.214Z,27.63
2018-07-16T19:37:40.094Z,27.44
2018-07-16T19:40:10.660Z,27.26
2018-07-16T19:42:41.396Z,26.98
2018-07-16T19:45:10.590Z,26.84
2018-07-16T19:47:40.302Z,26.79
2018-07-16T19:50:09.400Z,26.68
2018-07-16T19:52:39.068Z,26.45
2018-07-16T19:55:08.139Z,26.31
2018-07-16T19:57:37.413Z,26.22
2018-07-16T20:00:08.054Z,26.19
2018-07-16T20:02:37.334Z,26.21
2018-07-16T20:05:09.395Z,26.03
2018-07-16T20:07:38.390Z,26.01
2018-07-16T20:10:08.349Z,25.87
2018-07-16T20:12:38.302Z,25.69
2018-07-16T20:15:09.685Z,25.51
2018-07-16T20:17:38.658Z,25.54
2018-07-16T20:20:09.372Z,25.42
2018-07-16T20:22:38.381Z,25.38
2018-07-16T20:25:08.413Z,25.18
2018-07-16T20:27:37.590Z,25.13
2018-07-16T20:30:09.600Z,25.28
2018-07-16T20:32:38.817Z,25.45
2018-07-16T20:35:08.263Z,25.60
2018-07-16T20:37:37.471Z,25.62
2018-07-16T20:40:08.281Z,25.56
2018-07-16T20:42:37.346Z,25.57
2018-07-16T20:45:09.360Z,25.43
2018-07-16T20:47:38.445Z,25.43
2018-07-16T20:50:07.850Z,25.24
2018-07-16T20:52:37.149Z,25.14
2018-07-16T20:55:09.398Z,25.14
2018-07-16T20:57:38.738Z,25.04
2018-07-16T21:00:08.174Z,24.98
2018-07-16T21:02:37.155Z,24.84
2018-07-16T21:05:10.679Z,24.81
2018-07-16T21:07:40.428Z,24.79
2018-07-16T21:10:11.067Z,24.62
2018-07-16T21:12:40.428Z,24.27
2018-07-16T21:15:09.558Z,24.15
2018-07-16T21:17:39.162Z,24.05
2018-07-16T21:20:10.246Z,24.24
2018-07-16T21:22:39.399Z,24.09
2018-07-16T21:25:09.921Z,24.11
2018-07-16T21:27:38.935Z,23.98
2018-07-16T21:30:08.253Z,23.93
2018-07-16T21:32:37.352Z,23.88
2018-07-16T21:35:08.231Z,23.63
2018-07-16T21:37:37.351Z,23.55
2018-07-16T21:40:09.024Z,23.53
2018-07-16T21:42:38.033Z,23.44
2018-07-16T21:45:09.164Z,23.29
2018-07-16T21:47:38.313Z,23.19
2018-07-16T21:50:08.227Z,21.17
2018-07-16T21:52:37.159Z,23.20
2018-07-16T21:55:08.088Z,23.19
2018-07-16T21:57:37.175Z,23.03
2018-07-16T22:00:11.150Z,23.10
2018-07-16T22:02:40.079Z,22.82
2018-07-16T22:05:09.370Z,22.79
2018-07-16T22:07:38.863Z,22.55
2018-07-16T22:10:07.946Z,22.78
2018-07-16T22:12:37.864Z,22.58
2018-07-16T22:15:12.632Z,22.55
2018-07-16T22:17:41.607Z,22.68
2018-07-16T22:20:10.892Z,22.54
2018-07-16T22:22:40.000Z,22.39
2018-07-16T22:25:08.973Z,22.31
2018-07-16T22:27:38.071Z,22.41
2018-07-16T22:30:07.153Z,22.37
2018-07-16T22:32:36.140Z,22.41
2018-07-16T22:35:08.731Z,22.30
2018-07-16T22:37:37.820Z,22.20
2018-07-16T22:40:08.050Z,22.36
2018-07-16T22:42:37.015Z,22.08
2018-07-16T22:45:08.390Z,21.86
2018-07-16T22:47:37.406Z,22.04
2018-07-16T22:50:08.007Z,22.03
2018-07-16T22:52:36.998Z,22.00
2018-07-16T22:55:07.265Z,21.88
2018-07-16T22:57:37.223Z,21.79
2018-07-16T23:00:07.780Z,21.70
2018-07-16T23:02:36.720Z,21.61
2018-07-16T23:05:07.059Z,21.61
2018-07-16T23:07:36.583Z,21.53
2018-07-16T23:10:09.094Z,21.51
2018-07-16T23:12:38.893Z,21.54
2018-07-16T23:15:08.100Z,21.41
2018-07-16T23:17:37.056Z,21.27
2018-07-16T23:20:07.630Z,21.20
2018-07-16T23:22:51.923Z,21.28
2018-07-16T23:25:21.564Z,21.36
2018-07-16T23:27:50.621Z,21.28
2018-07-16T23:30:19.864Z,21.41
2018-07-16T23:32:48.937Z,21.29
2018-07-16T23:35:18.464Z,20.98
2018-07-16T23:37:47.499Z,20.93
2018-07-16T23:40:17.049Z,20.76
2018-07-16T23:42:46.555Z,20.71
2018-07-16T23:45:15.659Z,20.68
2018-07-16T23:47:45.209Z,20.64
2018-07-16T23:50:14.231Z,20.64
2018-07-16T23:52:43.201Z,20.48
2018-07-16T23:55:12.134Z,20.51
2018-07-16T23:57:41.943Z,20.48
